sensor_id;sensor_type;location;lat;lon;timestamp;P1;durP1;ratioP1;P2;durP2;ratioP2
19733;SDS011;10018;51.230;7.860;2024-03-07T00:02:20;55.43;;;28.17;;
19733;SDS011;10018;51.230;7.860;2024-03-07T00:04:46;57.13;;;28.20;;
19733;SDS011;10018;51.230;7.860;2024-03-07T00:07:11;55.50;;;28.23;;
19733;SDS011;10018;51.230;7.860;2024-03-07T00:09:37;58.80;;;29.10;;
19733;SDS011;10018;51.230;7.860;2024-03-07T00:12:03;52.93;;;27.80;;
19733;SDS011;10018;51.230;7.860;2024-03-07T00:14:31;54.90;;;27.93;;
19733;SDS011;10018;51.230;7.860;2024-03-07T00:16:57;46.67;;;26.33;;
19733;SDS011;10018;51.230;7.860;2024-03-07T00:19:24;55.10;;;28.47;;
19733;SDS011;10018;51.230;7.860;2024-03-07T00:21:55;53.27;;;26.67;;
19733;SDS011;10018;51.230;7.860;2024-03-07T00:24:21;52.13;;;26.17;;
19733;SDS011;10018;51.230;7.860;2024-03-07T00:26:50;58.13;;;28.57;;
19733;SDS011;10018;51.230;7.860;2024-03-07T00:29:16;51.97;;;28.23;;
19733;SDS011;10018;51.230;7.860;2024-03-07T00:31:48;51.77;;;27.33;;
19733;SDS011;10018;51.230;7.860;2024-03-07T00:34:14;52.30;;;27.33;;
19733;SDS011;10018;51.230;7.860;2024-03-07T00:36:41;52.53;;;26.63;;
19733;SDS011;10018;51.230;7.860;2024-03-07T00:39:07;54.17;;;26.40;;
19733;SDS011;10018;51.230;7.860;2024-03-07T00:41:33;52.03;;;26.23;;
19733;SDS011;10018;51.230;7.860;2024-03-07T00:43:59;50.90;;;25.63;;
19733;SDS011;10018;51.230;7.860;2024-03-07T00:46:27;52.60;;;25.93;;
19733;SDS011;10018;51.230;7.860;2024-03-07T00:48:55;50.77;;;26.63;;
19733;SDS011;10018;51.230;7.860;2024-03-07T00:51:21;55.57;;;26.23;;
19733;SDS011;10018;51.230;7.860;2024-03-07T00:53:47;52.20;;;25.63;;
19733;SDS011;10018;51.230;7.860;2024-03-07T00:56:13;52.53;;;26.20;;
19733;SDS011;10018;51.230;7.860;2024-03-07T00:58:39;50.27;;;25.23;;
19733;SDS011;10018;51.230;7.860;2024-03-07T01:01:04;51.17;;;25.27;;
19733;SDS011;10018;51.230;7.860;2024-03-07T01:03:30;50.03;;;24.57;;
19733;SDS011;10018;51.230;7.860;2024-03-07T01:05:56;50.53;;;24.77;;
19733;SDS011;10018;51.230;7.860;2024-03-07T01:08:21;51.83;;;25.17;;
19733;SDS011;10018;51.230;7.860;2024-03-07T01:10:47;47.77;;;24.27;;
19733;SDS011;10018;51.230;7.860;2024-03-07T01:13:13;54.77;;;25.10;;
19733;SDS011;10018;51.230;7.860;2024-03-07T01:15:44;51.53;;;24.53;;
19733;SDS011;10018;51.230;7.860;2024-03-07T01:18:10;52.37;;;24.73;;
19733;SDS011;10018;51.230;7.860;2024-03-07T01:20:36;54.90;;;24.17;;
19733;SDS011;10018;51.230;7.860;2024-03-07T01:23:01;53.00;;;24.97;;
19733;SDS011;10018;51.230;7.860;2024-03-07T01:25:27;50.03;;;25.23;;
19733;SDS011;10018;51.230;7.860;2024-03-07T01:27:59;50.27;;;24.63;;
19733;SDS011;10018;51.230;7.860;2024-03-07T01:30:25;48.30;;;24.47;;
19733;SDS011;10018;51.230;7.860;2024-03-07T01:32:53;54.33;;;25.27;;
19733;SDS011;10018;51.230;7.860;2024-03-07T01:35:19;46.77;;;23.83;;
19733;SDS011;10018;51.230;7.860;2024-03-07T01:37:44;49.23;;;24.30;;
19733;SDS011;10018;51.230;7.860;2024-03-07T01:40:10;47.40;;;24.43;;
19733;SDS011;10018;51.230;7.860;2024-03-07T01:42:36;47.00;;;24.37;;
19733;SDS011;10018;51.230;7.860;2024-03-07T01:45:02;47.97;;;24.13;;
19733;SDS011;10018;51.230;7.860;2024-03-07T01:47:31;46.53;;;23.23;;
19733;SDS011;10018;51.230;7.860;2024-03-07T01:49:56;49.80;;;25.13;;
19733;SDS011;10018;51.230;7.860;2024-03-07T01:52:24;48.20;;;23.53;;
19733;SDS011;10018;51.230;7.860;2024-03-07T01:54:49;49.73;;;24.17;;
19733;SDS011;10018;51.230;7.860;2024-03-07T01:57:16;56.67;;;25.60;;
19733;SDS011;10018;51.230;7.860;2024-03-07T01:59:43;62.57;;;26.53;;
19733;SDS011;10018;51.230;7.860;2024-03-07T02:02:10;62.97;;;27.00;;
19733;SDS011;10018;51.230;7.860;2024-03-07T02:04:35;65.20;;;27.93;;
19733;SDS011;10018;51.230;7.860;2024-03-07T02:07:01;57.60;;;25.70;;
19733;SDS011;10018;51.230;7.860;2024-03-07T02:09:26;59.67;;;26.83;;
19733;SDS011;10018;51.230;7.860;2024-03-07T02:11:52;63.87;;;25.90;;
19733;SDS011;10018;51.230;7.860;2024-03-07T02:14:18;57.47;;;25.73;;
19733;SDS011;10018;51.230;7.860;2024-03-07T02:16:46;59.37;;;26.17;;
19733;SDS011;10018;51.230;7.860;2024-03-07T02:19:12;55.77;;;26.10;;
19733;SDS011;10018;51.230;7.860;2024-03-07T02:21:43;72.90;;;25.90;;
19733;SDS011;10018;51.230;7.860;2024-03-07T02:24:13;49.77;;;24.87;;
19733;SDS011;10018;51.230;7.860;2024-03-07T02:26:40;54.83;;;25.40;;
19733;SDS011;10018;51.230;7.860;2024-03-07T02:29:06;66.23;;;26.10;;
19733;SDS011;10018;51.230;7.860;2024-03-07T02:31:31;61.67;;;25.87;;
19733;SDS011;10018;51.230;7.860;2024-03-07T02:34:04;63.93;;;28.07;;
19733;SDS011;10018;51.230;7.860;2024-03-07T02:36:30;66.90;;;26.47;;
19733;SDS011;10018;51.230;7.860;2024-03-07T02:38:56;60.07;;;27.93;;
19733;SDS011;10018;51.230;7.860;2024-03-07T02:41:21;66.10;;;26.67;;
19733;SDS011;10018;51.230;7.860;2024-03-07T02:43:47;59.73;;;26.63;;
19733;SDS011;10018;51.230;7.860;2024-03-07T02:46:15;62.80;;;25.83;;
19733;SDS011;10018;51.230;7.860;2024-03-07T02:48:41;54.17;;;25.37;;
19733;SDS011;10018;51.230;7.860;2024-03-07T02:51:07;57.83;;;26.00;;
19733;SDS011;10018;51.230;7.860;2024-03-07T02:53:34;62.87;;;26.77;;
19733;SDS011;10018;51.230;7.860;2024-03-07T02:56:00;58.93;;;26.27;;
19733;SDS011;10018;51.230;7.860;2024-03-07T02:58:26;55.17;;;25.80;;
19733;SDS011;10018;51.230;7.860;2024-03-07T03:00:58;60.77;;;26.37;;
19733;SDS011;10018;51.230;7.860;2024-03-07T03:03:25;57.23;;;26.23;;
19733;SDS011;10018;51.230;7.860;2024-03-07T03:05:51;62.50;;;27.70;;
19733;SDS011;10018;51.230;7.860;2024-03-07T03:08:17;69.80;;;26.07;;
19733;SDS011;10018;51.230;7.860;2024-03-07T03:10:43;75.53;;;26.73;;
19733;SDS011;10018;51.230;7.860;2024-03-07T03:13:09;108.40;;;27.13;;
19733;SDS011;10018;51.230;7.860;2024-03-07T03:15:35;97.07;;;26.83;;
19733;SDS011;10018;51.230;7.860;2024-03-07T03:18:03;70.70;;;27.00;;
19733;SDS011;10018;51.230;7.860;2024-03-07T03:20:30;82.40;;;27.13;;
19733;SDS011;10018;51.230;7.860;2024-03-07T03:22:59;56.13;;;25.63;;
19733;SDS011;10018;51.230;7.860;2024-03-07T03:25:28;63.40;;;25.60;;
19733;SDS011;10018;51.230;7.860;2024-03-07T03:27:53;87.60;;;28.40;;
19733;SDS011;10018;51.230;7.860;2024-03-07T03:30:21;66.67;;;28.83;;
19733;SDS011;10018;51.230;7.860;2024-03-07T03:32:47;69.97;;;28.60;;
19733;SDS011;10018;51.230;7.860;2024-03-07T03:35:13;68.70;;;27.43;;
19733;SDS011;10018;51.230;7.860;2024-03-07T03:37:40;85.13;;;29.13;;
19733;SDS011;10018;51.230;7.860;2024-03-07T03:40:09;94.80;;;29.50;;
19733;SDS011;10018;51.230;7.860;2024-03-07T03:42:36;96.17;;;30.00;;
19733;SDS011;10018;51.230;7.860;2024-03-07T03:45:05;57.70;;;26.63;;
19733;SDS011;10018;51.230;7.860;2024-03-07T03:47:35;56.20;;;26.53;;
19733;SDS011;10018;51.230;7.860;2024-03-07T03:50:05;84.67;;;28.67;;
19733;SDS011;10018;51.230;7.860;2024-03-07T03:52:32;109.33;;;29.13;;
19733;SDS011;10018;51.230;7.860;2024-03-07T03:54:58;79.07;;;26.77;;
19733;SDS011;10018;51.230;7.860;2024-03-07T03:57:27;79.17;;;23.83;;
19733;SDS011;10018;51.230;7.860;2024-03-07T03:59:54;81.03;;;24.77;;
19733;SDS011;10018;51.230;7.860;2024-03-07T04:02:21;81.43;;;25.70;;
19733;SDS011;10018;51.230;7.860;2024-03-07T04:04:50;61.87;;;23.70;;
19733;SDS011;10018;51.230;7.860;2024-03-07T04:07:16;58.90;;;23.07;;
19733;SDS011;10018;51.230;7.860;2024-03-07T04:09:45;52.93;;;23.43;;
19733;SDS011;10018;51.230;7.860;2024-03-07T04:12:12;67.07;;;22.90;;
19733;SDS011;10018;51.230;7.860;2024-03-07T04:14:41;128.93;;;26.27;;
19733;SDS011;10018;51.230;7.860;2024-03-07T04:17:08;53.07;;;21.07;;
19733;SDS011;10018;51.230;7.860;2024-03-07T04:19:36;84.90;;;22.80;;
19733;SDS011;10018;51.230;7.860;2024-03-07T04:22:06;121.17;;;24.93;;
19733;SDS011;10018;51.230;7.860;2024-03-07T04:24:34;100.17;;;24.40;;
19733;SDS011;10018;51.230;7.860;2024-03-07T04:27:00;97.10;;;24.10;;
19733;SDS011;10018;51.230;7.860;2024-03-07T04:29:29;151.20;;;24.57;;
19733;SDS011;10018;51.230;7.860;2024-03-07T04:31:58;60.60;;;20.93;;
19733;SDS011;10018;51.230;7.860;2024-03-07T04:34:24;70.37;;;21.70;;
19733;SDS011;10018;51.230;7.860;2024-03-07T04:36:50;117.67;;;21.80;;
19733;SDS011;10018;51.230;7.860;2024-03-07T04:39:16;132.60;;;23.93;;
19733;SDS011;10018;51.230;7.860;2024-03-07T04:41:52;88.10;;;22.50;;
19733;SDS011;10018;51.230;7.860;2024-03-07T04:44:19;87.63;;;22.70;;
19733;SDS011;10018;51.230;7.860;2024-03-07T04:46:47;171.13;;;22.73;;
19733;SDS011;10018;51.230;7.860;2024-03-07T04:49:14;139.00;;;22.83;;
19733;SDS011;10018;51.230;7.860;2024-03-07T04:51:40;55.47;;;21.07;;
19733;SDS011;10018;51.230;7.860;2024-03-07T04:54:06;52.77;;;21.20;;
19733;SDS011;10018;51.230;7.860;2024-03-07T04:56:31;61.40;;;20.73;;
19733;SDS011;10018;51.230;7.860;2024-03-07T04:58:57;73.43;;;22.63;;
19733;SDS011;10018;51.230;7.860;2024-03-07T05:01:23;74.67;;;23.63;;
19733;SDS011;10018;51.230;7.860;2024-03-07T05:03:50;54.13;;;20.43;;
19733;SDS011;10018;51.230;7.860;2024-03-07T05:06:17;46.00;;;21.07;;
19733;SDS011;10018;51.230;7.860;2024-03-07T05:08:43;51.03;;;20.67;;
19733;SDS011;10018;51.230;7.860;2024-03-07T05:11:09;60.23;;;21.07;;
19733;SDS011;10018;51.230;7.860;2024-03-07T05:13:39;74.83;;;23.13;;
19733;SDS011;10018;51.230;7.860;2024-03-07T05:16:07;87.10;;;21.23;;
19733;SDS011;10018;51.230;7.860;2024-03-07T05:18:33;41.40;;;21.27;;
19733;SDS011;10018;51.230;7.860;2024-03-07T05:20:58;113.80;;;23.47;;
19733;SDS011;10018;51.230;7.860;2024-03-07T05:23:44;187.40;;;26.50;;
19733;SDS011;10018;51.230;7.860;2024-03-07T05:26:09;111.50;;;22.67;;
19733;SDS011;10018;51.230;7.860;2024-03-07T05:28:35;43.97;;;21.00;;
19733;SDS011;10018;51.230;7.860;2024-03-07T05:31:03;47.07;;;22.53;;
19733;SDS011;10018;51.230;7.860;2024-03-07T05:33:29;83.33;;;22.47;;
19733;SDS011;10018;51.230;7.860;2024-03-07T05:35:55;58.50;;;22.13;;
19733;SDS011;10018;51.230;7.860;2024-03-07T05:38:38;61.07;;;23.07;;
19733;SDS011;10018;51.230;7.860;2024-03-07T05:41:04;93.47;;;23.33;;
19733;SDS011;10018;51.230;7.860;2024-03-07T05:43:30;63.33;;;22.27;;
19733;SDS011;10018;51.230;7.860;2024-03-07T05:45:57;65.20;;;23.73;;
19733;SDS011;10018;51.230;7.860;2024-03-07T05:48:25;54.97;;;22.77;;
19733;SDS011;10018;51.230;7.860;2024-03-07T05:50:51;69.90;;;22.10;;
19733;SDS011;10018;51.230;7.860;2024-03-07T05:53:17;76.40;;;23.17;;
19733;SDS011;10018;51.230;7.860;2024-03-07T05:55:45;106.17;;;23.23;;
19733;SDS011;10018;51.230;7.860;2024-03-07T05:58:11;85.40;;;22.93;;
19733;SDS011;10018;51.230;7.860;2024-03-07T06:00:37;85.70;;;22.97;;
19733;SDS011;10018;51.230;7.860;2024-03-07T06:03:06;127.97;;;23.00;;
19733;SDS011;10018;51.230;7.860;2024-03-07T06:05:33;92.33;;;22.63;;
19733;SDS011;10018;51.230;7.860;2024-03-07T06:07:59;71.10;;;20.43;;
19733;SDS011;10018;51.230;7.860;2024-03-07T06:10:24;91.53;;;21.80;;
19733;SDS011;10018;51.230;7.860;2024-03-07T06:12:51;92.67;;;22.87;;
19733;SDS011;10018;51.230;7.860;2024-03-07T06:15:18;46.03;;;19.93;;
19733;SDS011;10018;51.230;7.860;2024-03-07T06:17:43;73.93;;;20.80;;
19733;SDS011;10018;51.230;7.860;2024-03-07T06:20:11;47.17;;;19.70;;
19733;SDS011;10018;51.230;7.860;2024-03-07T06:22:47;46.53;;;19.30;;
19733;SDS011;10018;51.230;7.860;2024-03-07T06:25:14;62.70;;;18.93;;
19733;SDS011;10018;51.230;7.860;2024-03-07T06:27:45;145.07;;;19.17;;
19733;SDS011;10018;51.230;7.860;2024-03-07T06:30:17;60.20;;;18.77;;
19733;SDS011;10018;51.230;7.860;2024-03-07T06:32:43;58.83;;;18.73;;
19733;SDS011;10018;51.230;7.860;2024-03-07T06:35:12;63.27;;;17.93;;
19733;SDS011;10018;51.230;7.860;2024-03-07T06:37:40;81.10;;;18.43;;
19733;SDS011;10018;51.230;7.860;2024-03-07T06:40:06;46.90;;;18.40;;
19733;SDS011;10018;51.230;7.860;2024-03-07T06:42:34;51.60;;;18.97;;
19733;SDS011;10018;51.230;7.860;2024-03-07T06:45:02;47.07;;;17.87;;
19733;SDS011;10018;51.230;7.860;2024-03-07T06:47:28;42.43;;;19.00;;
19733;SDS011;10018;51.230;7.860;2024-03-07T06:49:54;34.17;;;18.40;;
19733;SDS011;10018;51.230;7.860;2024-03-07T06:52:21;51.73;;;19.10;;
19733;SDS011;10018;51.230;7.860;2024-03-07T06:54:46;33.20;;;17.70;;
19733;SDS011;10018;51.230;7.860;2024-03-07T06:57:12;38.00;;;18.57;;
19733;SDS011;10018;51.230;7.860;2024-03-07T06:59:37;55.13;;;18.97;;
19733;SDS011;10018;51.230;7.860;2024-03-07T07:02:03;37.73;;;20.33;;
19733;SDS011;10018;51.230;7.860;2024-03-07T07:04:29;38.13;;;18.70;;
19733;SDS011;10018;51.230;7.860;2024-03-07T07:07:06;45.17;;;18.93;;
19733;SDS011;10018;51.230;7.860;2024-03-07T07:09:33;46.20;;;18.50;;
19733;SDS011;10018;51.230;7.860;2024-03-07T07:12:00;37.20;;;18.57;;
19733;SDS011;10018;51.230;7.860;2024-03-07T07:14:28;38.40;;;19.20;;
19733;SDS011;10018;51.230;7.860;2024-03-07T07:16:54;34.93;;;17.53;;
19733;SDS011;10018;51.230;7.860;2024-03-07T07:19:21;38.73;;;19.23;;
19733;SDS011;10018;51.230;7.860;2024-03-07T07:21:47;38.08;;;19.33;;
19733;SDS011;10018;51.230;7.860;2024-03-07T07:24:14;37.23;;;19.17;;
19733;SDS011;10018;51.230;7.860;2024-03-07T07:26:43;40.33;;;20.33;;
19733;SDS011;10018;51.230;7.860;2024-03-07T07:29:09;40.03;;;19.63;;
19733;SDS011;10018;51.230;7.860;2024-03-07T07:31:37;39.70;;;19.80;;
19733;SDS011;10018;51.230;7.860;2024-03-07T07:34:03;36.90;;;19.63;;
19733;SDS011;10018;51.230;7.860;2024-03-07T07:36:29;41.50;;;21.00;;
19733;SDS011;10018;51.230;7.860;2024-03-07T07:38:55;43.63;;;21.33;;
19733;SDS011;10018;51.230;7.860;2024-03-07T07:41:21;36.93;;;20.10;;
19733;SDS011;10018;51.230;7.860;2024-03-07T07:43:47;40.17;;;20.97;;
19733;SDS011;10018;51.230;7.860;2024-03-07T07:46:13;44.23;;;22.03;;
19733;SDS011;10018;51.230;7.860;2024-03-07T07:48:41;53.53;;;21.60;;
19733;SDS011;10018;51.230;7.860;2024-03-07T07:51:06;45.30;;;21.70;;
19733;SDS011;10018;51.230;7.860;2024-03-07T07:53:32;41.23;;;20.93;;
19733;SDS011;10018;51.230;7.860;2024-03-07T07:55:59;42.17;;;21.03;;
19733;SDS011;10018;51.230;7.860;2024-03-07T07:58:24;43.60;;;21.90;;
19733;SDS011;10018;51.230;7.860;2024-03-07T08:00:50;41.87;;;21.23;;
19733;SDS011;10018;51.230;7.860;2024-03-07T08:03:16;40.67;;;21.33;;
19733;SDS011;10018;51.230;7.860;2024-03-07T08:05:43;41.60;;;22.13;;
19733;SDS011;10018;51.230;7.860;2024-03-07T08:08:11;42.60;;;21.50;;
19733;SDS011;10018;51.230;7.860;2024-03-07T08:10:39;41.87;;;21.00;;
19733;SDS011;10018;51.230;7.860;2024-03-07T08:13:08;39.47;;;21.37;;
19733;SDS011;10018;51.230;7.860;2024-03-07T08:15:35;43.10;;;21.37;;
19733;SDS011;10018;51.230;7.860;2024-03-07T08:18:01;40.30;;;20.60;;
19733;SDS011;10018;51.230;7.860;2024-03-07T08:20:33;39.80;;;20.40;;
19733;SDS011;10018;51.230;7.860;2024-03-07T08:23:01;43.33;;;25.33;;
19733;SDS011;10018;51.230;7.860;2024-03-07T08:25:27;48.53;;;28.93;;
19733;SDS011;10018;51.230;7.860;2024-03-07T08:27:54;38.37;;;20.63;;
19733;SDS011;10018;51.230;7.860;2024-03-07T08:30:25;37.23;;;21.03;;
19733;SDS011;10018;51.230;7.860;2024-03-07T08:32:54;39.53;;;22.33;;
19733;SDS011;10018;51.230;7.860;2024-03-07T08:35:21;37.00;;;20.50;;
19733;SDS011;10018;51.230;7.860;2024-03-07T08:37:48;36.90;;;20.43;;
19733;SDS011;10018;51.230;7.860;2024-03-07T08:40:18;39.03;;;20.50;;
19733;SDS011;10018;51.230;7.860;2024-03-07T08:42:45;35.07;;;20.03;;
19733;SDS011;10018;51.230;7.860;2024-03-07T08:45:12;32.07;;;19.23;;
19733;SDS011;10018;51.230;7.860;2024-03-07T08:47:42;34.43;;;19.20;;
19733;SDS011;10018;51.230;7.860;2024-03-07T08:50:08;34.30;;;18.77;;
19733;SDS011;10018;51.230;7.860;2024-03-07T08:52:37;36.47;;;19.50;;
19733;SDS011;10018;51.230;7.860;2024-03-07T08:55:03;32.97;;;18.33;;
19733;SDS011;10018;51.230;7.860;2024-03-07T08:57:29;32.87;;;18.50;;
19733;SDS011;10018;51.230;7.860;2024-03-07T08:59:55;33.47;;;18.73;;
19733;SDS011;10018;51.230;7.860;2024-03-07T09:02:25;34.90;;;19.10;;
19733;SDS011;10018;51.230;7.860;2024-03-07T09:04:52;34.57;;;21.10;;
19733;SDS011;10018;51.230;7.860;2024-03-07T09:07:18;34.27;;;19.70;;
19733;SDS011;10018;51.230;7.860;2024-03-07T09:09:45;35.07;;;19.63;;
19733;SDS011;10018;51.230;7.860;2024-03-07T09:12:11;33.43;;;19.00;;
19733;SDS011;10018;51.230;7.860;2024-03-07T09:14:37;32.00;;;19.00;;
19733;SDS011;10018;51.230;7.860;2024-03-07T09:17:03;36.97;;;20.03;;
19733;SDS011;10018;51.230;7.860;2024-03-07T09:19:32;33.53;;;19.37;;
19733;SDS011;10018;51.230;7.860;2024-03-07T09:21:57;37.97;;;19.50;;
19733;SDS011;10018;51.230;7.860;2024-03-07T09:24:23;35.03;;;19.53;;
19733;SDS011;10018;51.230;7.860;2024-03-07T09:26:52;34.57;;;19.87;;
19733;SDS011;10018;51.230;7.860;2024-03-07T09:29:18;33.33;;;19.37;;
19733;SDS011;10018;51.230;7.860;2024-03-07T09:31:49;36.65;;;21.27;;
19733;SDS011;10018;51.230;7.860;2024-03-07T09:34:17;37.73;;;20.13;;
19733;SDS011;10018;51.230;7.860;2024-03-07T09:36:44;36.17;;;21.20;;
19733;SDS011;10018;51.230;7.860;2024-03-07T09:39:09;32.77;;;19.77;;
19733;SDS011;10018;51.230;7.860;2024-03-07T09:41:37;33.70;;;20.50;;
19733;SDS011;10018;51.230;7.860;2024-03-07T09:44:08;38.30;;;21.43;;
19733;SDS011;10018;51.230;7.860;2024-03-07T09:46:39;37.87;;;22.07;;
19733;SDS011;10018;51.230;7.860;2024-03-07T09:49:06;35.63;;;20.70;;
19733;SDS011;10018;51.230;7.860;2024-03-07T09:51:35;39.90;;;20.57;;
19733;SDS011;10018;51.230;7.860;2024-03-07T09:54:02;39.00;;;20.80;;
19733;SDS011;10018;51.230;7.860;2024-03-07T09:56:28;35.57;;;20.57;;
19733;SDS011;10018;51.230;7.860;2024-03-07T09:59:01;33.60;;;20.03;;
19733;SDS011;10018;51.230;7.860;2024-03-07T10:01:36;34.27;;;21.77;;
19733;SDS011;10018;51.230;7.860;2024-03-07T10:04:05;37.50;;;22.13;;
19733;SDS011;10018;51.230;7.860;2024-03-07T10:06:42;35.17;;;19.93;;
19733;SDS011;10018;51.230;7.860;2024-03-07T10:09:11;35.17;;;20.37;;
19733;SDS011;10018;51.230;7.860;2024-03-07T10:11:40;39.20;;;22.40;;
19733;SDS011;10018;51.230;7.860;2024-03-07T10:14:06;40.90;;;23.23;;
19733;SDS011;10018;51.230;7.860;2024-03-07T10:16:32;36.80;;;20.83;;
19733;SDS011;10018;51.230;7.860;2024-03-07T10:18:58;39.97;;;20.53;;
19733;SDS011;10018;51.230;7.860;2024-03-07T10:21:26;30.83;;;19.23;;
19733;SDS011;10018;51.230;7.860;2024-03-07T10:24:03;34.60;;;18.40;;
19733;SDS011;10018;51.230;7.860;2024-03-07T10:26:33;33.93;;;19.13;;
19733;SDS011;10018;51.230;7.860;2024-03-07T10:29:00;32.33;;;18.97;;
19733;SDS011;10018;51.230;7.860;2024-03-07T10:31:29;32.27;;;18.93;;
19733;SDS011;10018;51.230;7.860;2024-03-07T10:34:01;38.70;;;22.33;;
19733;SDS011;10018;51.230;7.860;2024-03-07T10:36:27;37.90;;;20.80;;
19733;SDS011;10018;51.230;7.860;2024-03-07T10:38:57;33.47;;;18.70;;
19733;SDS011;10018;51.230;7.860;2024-03-07T10:41:36;29.03;;;16.87;;
19733;SDS011;10018;51.230;7.860;2024-03-07T10:44:15;36.73;;;23.90;;
19733;SDS011;10018;51.230;7.860;2024-03-07T10:46:52;35.53;;;21.07;;
19733;SDS011;10018;51.230;7.860;2024-03-07T10:49:20;45.10;;;29.27;;
19733;SDS011;10018;51.230;7.860;2024-03-07T11:00:14;25.10;;;15.77;;
19733;SDS011;10018;51.230;7.860;2024-03-07T11:02:56;24.30;;;16.40;;
19733;SDS011;10018;51.230;7.860;2024-03-07T11:05:26;20.63;;;12.37;;
19733;SDS011;10018;51.230;7.860;2024-03-07T11:07:57;22.77;;;15.30;;
19733;SDS011;10018;51.230;7.860;2024-03-07T11:10:27;21.80;;;11.27;;
19733;SDS011;10018;51.230;7.860;2024-03-07T11:12:53;17.90;;;10.80;;
19733;SDS011;10018;51.230;7.860;2024-03-07T11:15:20;16.63;;;11.77;;
19733;SDS011;10018;51.230;7.860;2024-03-07T11:17:48;18.60;;;11.07;;
19733;SDS011;10018;51.230;7.860;2024-03-07T11:20:27;18.37;;;11.17;;
19733;SDS011;10018;51.230;7.860;2024-03-07T11:22:59;18.77;;;10.50;;
19733;SDS011;10018;51.230;7.860;2024-03-07T11:25:26;22.70;;;13.67;;
19733;SDS011;10018;51.230;7.860;2024-03-07T11:30:22;20.67;;;11.87;;
19733;SDS011;10018;51.230;7.860;2024-03-07T11:32:51;20.33;;;12.07;;
19733;SDS011;10018;51.230;7.860;2024-03-07T11:35:32;27.53;;;17.50;;
19733;SDS011;10018;51.230;7.860;2024-03-07T11:38:01;33.13;;;19.37;;
19733;SDS011;10018;51.230;7.860;2024-03-07T11:42:55;23.87;;;13.27;;
19733;SDS011;10018;51.230;7.860;2024-03-07T11:45:25;18.93;;;12.10;;
19733;SDS011;10018;51.230;7.860;2024-03-07T11:47:53;23.50;;;16.23;;
19733;SDS011;10018;51.230;7.860;2024-03-07T11:50:34;20.57;;;12.00;;
19733;SDS011;10018;51.230;7.860;2024-03-07T11:53:04;20.00;;;11.20;;
19733;SDS011;10018;51.230;7.860;2024-03-07T11:55:31;20.50;;;11.73;;
19733;SDS011;10018;51.230;7.860;2024-03-07T11:58:10;21.30;;;11.97;;
19733;SDS011;10018;51.230;7.860;2024-03-07T12:00:41;20.53;;;12.33;;
19733;SDS011;10018;51.230;7.860;2024-03-07T12:03:10;19.57;;;12.50;;
19733;SDS011;10018;51.230;7.860;2024-03-07T12:05:44;23.33;;;14.80;;
19733;SDS011;10018;51.230;7.860;2024-03-07T12:08:10;18.30;;;11.03;;
19733;SDS011;10018;51.230;7.860;2024-03-07T12:10:40;23.17;;;14.37;;
19733;SDS011;10018;51.230;7.860;2024-03-07T12:13:13;22.33;;;13.03;;
19733;SDS011;10018;51.230;7.860;2024-03-07T12:15:44;18.33;;;11.30;;
19733;SDS011;10018;51.230;7.860;2024-03-07T12:18:10;20.73;;;12.60;;
19733;SDS011;10018;51.230;7.860;2024-03-07T12:20:39;23.70;;;12.70;;
19733;SDS011;10018;51.230;7.860;2024-03-07T12:23:06;22.20;;;12.87;;
19733;SDS011;10018;51.230;7.860;2024-03-07T12:25:36;23.40;;;14.23;;
19733;SDS011;10018;51.230;7.860;2024-03-07T12:28:06;22.00;;;12.73;;
19733;SDS011;10018;51.230;7.860;2024-03-07T12:33:11;21.20;;;12.57;;
19733;SDS011;10018;51.230;7.860;2024-03-07T12:35:41;20.27;;;11.80;;
19733;SDS011;10018;51.230;7.860;2024-03-07T12:38:21;23.67;;;12.77;;
19733;SDS011;10018;51.230;7.860;2024-03-07T12:41:01;20.80;;;11.87;;
19733;SDS011;10018;51.230;7.860;2024-03-07T12:43:31;22.30;;;12.23;;
19733;SDS011;10018;51.230;7.860;2024-03-07T12:45:57;19.43;;;12.23;;
19733;SDS011;10018;51.230;7.860;2024-03-07T12:48:24;21.73;;;11.97;;
19733;SDS011;10018;51.230;7.860;2024-03-07T12:50:50;23.53;;;12.40;;
19733;SDS011;10018;51.230;7.860;2024-03-07T12:53:20;20.27;;;11.40;;
19733;SDS011;10018;51.230;7.860;2024-03-07T12:55:47;21.23;;;12.30;;
19733;SDS011;10018;51.230;7.860;2024-03-07T12:58:13;22.63;;;13.17;;
19733;SDS011;10018;51.230;7.860;2024-03-07T13:00:39;21.03;;;12.10;;
19733;SDS011;10018;51.230;7.860;2024-03-07T13:03:10;20.67;;;11.90;;
19733;SDS011;10018;51.230;7.860;2024-03-07T13:05:39;19.37;;;11.80;;
19733;SDS011;10018;51.230;7.860;2024-03-07T13:08:06;22.27;;;11.53;;
19733;SDS011;10018;51.230;7.860;2024-03-07T13:10:41;19.53;;;12.40;;
19733;SDS011;10018;51.230;7.860;2024-03-07T13:13:08;21.77;;;11.70;;
19733;SDS011;10018;51.230;7.860;2024-03-07T13:15:37;22.73;;;12.63;;
19733;SDS011;10018;51.230;7.860;2024-03-07T13:18:03;198.17;;;97.97;;
19733;SDS011;10018;51.230;7.860;2024-03-07T13:20:30;39.07;;;23.10;;
19733;SDS011;10018;51.230;7.860;2024-03-07T13:22:56;22.00;;;13.30;;
19733;SDS011;10018;51.230;7.860;2024-03-07T13:25:23;19.83;;;11.73;;
19733;SDS011;10018;51.230;7.860;2024-03-07T13:27:51;19.83;;;12.23;;
19733;SDS011;10018;51.230;7.860;2024-03-07T13:30:20;21.10;;;12.43;;
19733;SDS011;10018;51.230;7.860;2024-03-07T13:32:53;24.20;;;14.40;;
19733;SDS011;10018;51.230;7.860;2024-03-07T13:35:23;23.20;;;14.37;;
19733;SDS011;10018;51.230;7.860;2024-03-07T13:37:51;19.83;;;12.10;;
19733;SDS011;10018;51.230;7.860;2024-03-07T13:40:20;22.30;;;13.23;;
19733;SDS011;10018;51.230;7.860;2024-03-07T13:42:50;24.83;;;14.10;;
19733;SDS011;10018;51.230;7.860;2024-03-07T13:45:23;21.17;;;12.07;;
19733;SDS011;10018;51.230;7.860;2024-03-07T13:47:51;22.37;;;12.57;;
19733;SDS011;10018;51.230;7.860;2024-03-07T13:50:19;21.67;;;13.23;;
19733;SDS011;10018;51.230;7.860;2024-03-07T13:52:49;29.23;;;14.17;;
19733;SDS011;10018;51.230;7.860;2024-03-07T14:10:16;29.43;;;17.47;;
19733;SDS011;10018;51.230;7.860;2024-03-07T14:16:25;22.40;;;12.90;;
19733;SDS011;10018;51.230;7.860;2024-03-07T14:28:14;56.23;;;32.47;;
19733;SDS011;10018;51.230;7.860;2024-03-07T14:30:49;32.63;;;18.47;;
19733;SDS011;10018;51.230;7.860;2024-03-07T14:33:20;32.90;;;20.67;;
19733;SDS011;10018;51.230;7.860;2024-03-07T14:36:06;27.97;;;16.10;;
19733;SDS011;10018;51.230;7.860;2024-03-07T14:38:51;28.50;;;15.20;;
19733;SDS011;10018;51.230;7.860;2024-03-07T14:41:23;22.37;;;12.17;;
19733;SDS011;10018;51.230;7.860;2024-03-07T14:44:07;23.93;;;12.83;;
19733;SDS011;10018;51.230;7.860;2024-03-07T14:46:32;24.80;;;14.13;;
19733;SDS011;10018;51.230;7.860;2024-03-07T14:48:59;24.67;;;15.67;;
19733;SDS011;10018;51.230;7.860;2024-03-07T14:51:25;19.57;;;11.50;;
19733;SDS011;10018;51.230;7.860;2024-03-07T14:53:51;29.73;;;16.97;;
19733;SDS011;10018;51.230;7.860;2024-03-07T14:56:16;25.63;;;15.03;;
19733;SDS011;10018;51.230;7.860;2024-03-07T14:58:44;21.93;;;13.37;;
19733;SDS011;10018;51.230;7.860;2024-03-07T15:01:15;21.67;;;13.00;;
19733;SDS011;10018;51.230;7.860;2024-03-07T15:03:41;19.97;;;13.63;;
19733;SDS011;10018;51.230;7.860;2024-03-07T15:06:10;23.07;;;13.07;;
19733;SDS011;10018;51.230;7.860;2024-03-07T15:08:39;21.47;;;12.57;;
19733;SDS011;10018;51.230;7.860;2024-03-07T15:11:15;22.43;;;12.73;;